Time;durP1;ratioP1;P1;durP2;ratioP2;P2;SDS_P1;SDS_P2;PMS_P1;PMS_P2;Temp;Humidity;BMP_temperature;BMP_pressure;BME280_temperature;BME280_humidity;BME280_pressure;Samples;Min_cycle;Max_cycle;Signal;HPM_P1;HPM_P2
2022/04/17 00:00:38;;;;;;;2.35;1.50;;;11.90;1.00;;;;;;4900392;29;20060;-90
2022/04/17 00:03:06;;;;;;;2.55;1.60;;;11.90;1.00;;;;;;4897102;29;20044;-89
2022/04/17 00:05:35;;;;;;;2.25;1.83;;;11.90;1.00;;;;;;4882378;29;20045;-89
2022/04/17 00:08:03;;;;;;;2.03;1.60;;;11.80;1.00;;;;;;4881919;29;20647;-88
2022/04/17 00:10:31;;;;;;;2.78;1.63;;;11.80;1.00;;;;;;4912845;29;20143;-89
2022/04/17 00:12:58;;;;;;;2.85;2.15;;;11.80;1.00;;;;;;4882144;29;20048;-90
2022/04/17 00:15:25;;;;;;;2.58;1.65;;;11.70;1.00;;;;;;4898663;29;20048;-91
2022/04/17 00:17:52;;;;;;;2.72;1.58;;;11.70;1.00;;;;;;4881500;29;20059;-90
2022/04/17 00:20:19;;;;;;;2.55;1.75;;;11.70;1.00;;;;;;4898391;29;20384;-90
2022/04/17 00:22:47;;;;;;;2.10;1.42;;;11.70;1.00;;;;;;4881520;29;20052;-90
2022/04/17 00:25:16;;;;;;;2.50;1.77;;;11.60;1.00;;;;;;4897233;29;20049;-90
2022/04/17 00:27:43;;;;;;;2.72;1.67;;;11.60;1.00;;;;;;4881841;29;20059;-90
2022/04/17 00:30:11;;;;;;;1.83;1.40;;;11.60;1.00;;;;;;4881558;29;20506;-90
2022/04/17 00:32:38;;;;;;;3.78;1.52;;;11.50;1.00;;;;;;4896982;29;20087;-89
2022/04/17 00:35:07;;;;;;;2.88;1.45;;;11.50;1.00;;;;;;4913159;29;20406;-89
2022/04/17 00:37:35;;;;;;;3.70;1.77;;;11.50;1.00;;;;;;4881556;29;20147;-90
2022/04/17 00:40:04;;;;;;;2.88;1.77;;;11.50;1.00;;;;;;4912580;29;20148;-89
2022/04/17 00:42:32;;;;;;;1.60;1.35;;;11.40;1.00;;;;;;4913192;29;20415;-90
2022/04/17 00:45:00;;;;;;;2.35;1.40;;;11.40;1.00;;;;;;4897984;29;20055;-90
2022/04/17 00:47:27;;;;;;;2.38;1.65;;;11.40;1.00;;;;;;4881496;29;20048;-90
2022/04/17 00:49:54;;;;;;;3.35;1.83;;;11.40;1.00;;;;;;4881570;29;20048;-90
2022/04/17 00:52:21;;;;;;;4.45;1.70;;;11.30;1.00;;;;;;4881169;29;20045;-90
2022/04/17 00:54:50;;;;;;;2.33;1.65;;;11.30;1.00;;;;;;4900458;29;20055;-90
2022/04/17 00:57:17;;;;;;;3.08;1.88;;;11.30;1.00;;;;;;4903415;29;20490;-90
2022/04/17 00:59:46;;;;;;;2.22;1.52;;;11.20;1.00;;;;;;4904315;29;20550;-90
2022/04/17 01:02:14;;;;;;;3.85;2.60;;;11.20;1.00;;;;;;4903511;29;20120;-90
2022/04/17 01:04:42;;;;;;;4.10;1.60;;;11.10;1.00;;;;;;4908420;29;20127;-90
2022/04/17 01:07:10;;;;;;;3.75;1.73;;;11.10;1.00;;;;;;4905376;29;20048;-90
2022/04/17 01:09:38;;;;;;;3.33;1.55;;;11.10;1.00;;;;;;4925215;29;20127;-90
2022/04/17 01:12:10;;;;;;;2.83;1.50;;;11.10;1.00;;;;;;4922282;29;20151;-91
2022/04/17 01:14:41;;;;;;;2.83;1.85;;;11.10;1.00;;;;;;4918757;29;20051;-91
2022/04/17 01:17:10;;;;;;;1.90;1.30;;;11.10;1.00;;;;;;4899853;29;20422;-90
2022/04/17 01:19:39;;;;;;;2.05;1.33;;;11.10;1.00;;;;;;4915864;29;20444;-90
2022/04/17 01:22:11;;;;;;;3.58;1.40;;;11.10;1.00;;;;;;4915449;29;20546;-89
2022/04/17 01:27:26;;;;;;;3.00;1.98;;;11.00;1.00;;;;;;4900118;29;20056;-89
2022/04/17 01:29:53;;;;;;;3.15;1.92;;;11.00;1.00;;;;;;4899752;29;20044;-89
2022/04/17 01:32:21;;;;;;;1.58;1.38;;;10.90;1.00;;;;;;4915670;29;20052;-89
2022/04/17 01:34:49;;;;;;;2.67;1.35;;;10.80;1.00;;;;;;4900051;29;20051;-89
2022/04/17 01:37:20;;;;;;;3.45;1.75;;;10.90;1.00;;;;;;4899508;29;20044;-89
2022/04/17 01:39:47;;;;;;;5.38;2.17;;;10.90;1.00;;;;;;4899716;29;20495;-90
2022/04/17 01:42:16;;;;;;;3.10;1.38;;;10.90;1.00;;;;;;4899227;29;20049;-89
2022/04/17 01:44:44;;;;;;;5.65;2.05;;;10.80;1.00;;;;;;4883776;29;20044;-89
2022/04/17 01:47:11;;;;;;;2.83;1.67;;;10.80;1.00;;;;;;4883745;29;20045;-87
2022/04/17 01:49:38;;;;;;;3.55;1.92;;;10.80;1.00;;;;;;4883474;29;20096;-89
2022/04/17 01:52:07;;;;;;;3.53;1.67;;;10.70;1.00;;;;;;4883713;29;20055;-89
2022/04/17 01:54:34;;;;;;;2.80;1.98;;;10.70;1.00;;;;;;4883788;29;20107;-89
2022/04/17 01:57:01;;;;;;;4.55;1.73;;;10.70;1.00;;;;;;4899261;29;20045;-89
2022/04/17 01:59:29;;;;;;;1.98;1.30;;;10.70;1.00;;;;;;4883947;29;20565;-91
2022/04/17 02:01:56;;;;;;;3.67;2.45;;;10.70;1.00;;;;;;4901855;29;20106;-89
2022/04/17 02:04:27;;;;;;;2.05;1.48;;;10.70;1.00;;;;;;4918721;29;20227;-89
2022/04/17 02:06:54;;;;;;;4.03;1.95;;;10.60;1.00;;;;;;4918435;29;20561;-89
2022/04/17 02:09:21;;;;;;;3.88;1.88;;;10.60;1.00;;;;;;4918087;29;20040;-89
2022/04/17 02:11:49;;;;;;;3.03;1.50;;;10.60;1.00;;;;;;4918552;29;20103;-89
2022/04/17 02:14:16;;;;;;;2.38;1.60;;;10.60;1.00;;;;;;4918030;29;20044;-90
2022/04/17 02:16:43;;;;;;;2.95;1.33;;;10.60;1.00;;;;;;4898472;29;20048;-90
2022/04/17 02:19:10;;;;;;;4.57;2.10;;;10.60;1.00;;;;;;4914220;29;20068;-90
2022/04/17 02:21:37;;;;;;;2.78;1.75;;;10.50;1.00;;;;;;4898845;29;20135;-89
2022/04/17 02:24:05;;;;;;;9.20;1.90;;;10.50;1.00;;;;;;4898354;29;20116;-90
2022/04/17 02:26:33;;;;;;;3.13;1.90;;;10.50;1.00;;;;;;4898943;29;20089;-89
2022/04/17 02:29:02;;;;;;;3.13;2.05;;;10.50;1.00;;;;;;4883176;29;20040;-90
2022/04/17 02:31:30;;;;;;;2.75;2.10;;;10.50;1.00;;;;;;4898796;29;20063;-89
2022/04/17 02:33:59;;;;;;;4.45;2.45;;;10.40;1.00;;;;;;4898463;29;20048;-89
2022/04/17 02:36:26;;;;;;;2.97;1.67;;;10.40;1.00;;;;;;4898493;29;20108;-90
2022/04/17 02:38:53;;;;;;;6.50;2.28;;;10.40;1.00;;;;;;4898979;29;20502;-89
2022/04/17 02:41:21;;;;;;;8.57;1.92;;;10.40;1.00;;;;;;4898264;29;20555;-89
2022/04/17 02:43:48;;;;;;;3.20;2.00;;;10.40;1.00;;;;;;4914108;29;20123;-90
2022/04/17 02:47:42;;;;;;;2.92;1.70;;;10.30;1.00;;;;;;4898272;29;20053;-90
2022/04/17 02:49:03;;;;;;;5.22;2.40;;;10.30;1.00;;;;;;4897770;29;20045;-89
2022/04/17 02:51:30;;;;;;;3.63;1.98;;;10.30;1.00;;;;;;4897955;29;20443;-90
2022/04/17 02:53:57;;;;;;;5.45;2.30;;;10.30;1.00;;;;;;4898134;29;20048;-90
2022/04/17 02:56:24;;;;;;;3.35;2.13;;;10.20;1.00;;;;;;4897860;29;20048;-89
2022/04/17 02:58:54;;;;;;;4.28;1.92;;;10.20;1.00;;;;;;4898343;29;20048;-89
2022/04/17 03:06:56;;;;;;;3.70;2.28;;;10.10;1.00;;;;;;4900409;29;20044;-91
2022/04/17 03:09:23;;;;;;;3.72;2.25;;;10.10;1.00;;;;;;4902059;29;20045;-89
2022/04/17 03:11:51;;;;;;;3.47;2.30;;;10.10;1.00;;;;;;4918237;29;20048;-90
2022/04/17 03:14:17;;;;;;;2.20;1.60;;;10.10;1.00;;;;;;4902839;29;20048;-89
2022/04/17 03:16:44;;;;;;;3.85;2.35;;;10.10;1.00;;;;;;4901898;29;20414;-89
2022/04/17 03:19:11;;;;;;;4.40;2.38;;;10.00;1.00;;;;;;4897485;29;20460;-89
2022/04/17 03:21:39;;;;;;;4.75;2.10;;;10.00;1.00;;;;;;4897430;29;20041;-90
2022/04/17 03:24:06;;;;;;;3.92;2.25;;;9.90;1.00;;;;;;4897657;29;20052;-90
2022/04/17 03:26:34;;;;;;;3.92;2.45;;;9.90;1.00;;;;;;4897807;29;20052;-90
2022/04/17 03:29:01;;;;;;;5.75;2.35;;;9.90;1.00;;;;;;4897863;29;20048;-90
2022/04/17 03:31:28;;;;;;;2.85;1.90;;;9.90;1.00;;;;;;4897774;29;20048;-90
2022/04/17 03:33:55;;;;;;;4.15;2.38;;;9.90;1.00;;;;;;4897823;29;20057;-90
2022/04/17 03:36:22;;;;;;;3.58;2.38;;;9.90;1.00;;;;;;4882186;29;20099;-90
2022/04/17 03:38:49;;;;;;;3.90;2.25;;;9.90;1.00;;;;;;4897812;29;20049;-91
2022/04/17 03:41:16;;;;;;;2.83;1.88;;;9.80;1.00;;;;;;4898526;29;20563;-89
2022/04/17 03:43:43;;;;;;;5.38;2.25;;;9.80;1.00;;;;;;4914052;29;20055;-90
2022/04/17 03:46:10;;;;;;;4.45;2.42;;;9.80;1.00;;;;;;4899191;29;20114;-90
2022/04/17 03:48:37;;;;;;;5.65;2.35;;;9.80;1.00;;;;;;4897586;29;20483;-90
2022/04/17 03:51:05;;;;;;;6.78;2.97;;;9.80;1.00;;;;;;4913394;29;20100;-90
2022/04/17 03:53:31;;;;;;;3.70;2.38;;;9.70;1.00;;;;;;4913563;29;20074;-89
2022/04/17 03:55:58;;;;;;;2.67;2.15;;;9.70;1.00;;;;;;4906224;29;20053;-89
2022/04/17 03:58:26;;;;;;;5.50;2.38;;;9.70;1.00;;;;;;4912888;29;20052;-90
2022/04/17 04:00:54;;;;;;;4.53;2.22;;;9.70;1.00;;;;;;4896748;29;20049;-90
2022/04/17 04:03:21;;;;;;;4.47;2.63;;;9.70;1.00;;;;;;4895260;29;20052;-89
2022/04/17 04:05:49;;;;;;;3.05;2.15;;;9.60;1.00;;;;;;4916157;29;20040;-90
2022/04/17 04:08:16;;;;;;;5.35;2.35;;;9.60;1.00;;;;;;4900424;29;20643;-90
2022/04/17 04:10:43;;;;;;;5.50;2.58;;;9.60;1.00;;;;;;4915793;29;20051;-89
2022/04/17 04:13:10;;;;;;;4.05;2.45;;;9.60;1.00;;;;;;4900424;29;20104;-89
2022/04/17 04:15:37;;;;;;;3.42;2.55;;;9.60;1.00;;;;;;4900297;29;20071;-89
2022/04/17 04:18:04;;;;;;;4.03;2.55;;;9.50;1.00;;;;;;4915837;29;20104;-90
2022/04/17 04:20:31;;;;;;;3.13;2.20;;;9.50;1.00;;;;;;4915977;29;20052;-90
2022/04/17 04:22:58;;;;;;;3.97;2.45;;;9.50;1.00;;;;;;4900264;29;20048;-88
2022/04/17 04:25:26;;;;;;;5.30;2.67;;;9.50;1.00;;;;;;4900659;29;20139;-90
2022/04/17 04:30:39;;;;;;;4.05;2.28;;;9.40;1.00;;;;;;4918413;29;20072;-89
2022/04/17 04:33:06;;;;;;;4.10;2.38;;;9.40;1.00;;;;;;4903622;29;20052;-90
2022/04/17 04:35:33;;;;;;;3.60;2.45;;;9.40;1.00;;;;;;4918966;29;20084;-90
2022/04/17 04:38:05;;;;;;;6.13;2.47;;;9.40;1.00;;;;;;4916720;29;20048;-90
2022/04/17 04:40:32;;;;;;;5.03;2.50;;;9.40;1.00;;;;;;4916822;29;20052;-90
2022/04/17 04:43:00;;;;;;;5.55;2.33;;;9.30;1.00;;;;;;4903927;29;20068;-91
2022/04/17 04:48:14;;;;;;;3.85;1.98;;;9.30;1.00;;;;;;4919692;29;20117;-91
2022/04/17 04:50:41;;;;;;;3.45;2.22;;;9.30;1.00;;;;;;4903585;29;20079;-90
2022/04/17 04:53:08;;;;;;;3.88;2.55;;;9.20;1.00;;;;;;4903422;29;20044;-90
2022/04/17 04:55:35;;;;;;;7.10;2.60;;;9.20;1.00;;;;;;4919432;29;20447;-89
2022/04/17 04:58:02;;;;;;;4.88;2.72;;;9.20;1.00;;;;;;4903616;29;20502;-90
2022/04/17 05:00:29;;;;;;;4.15;2.72;;;9.20;1.00;;;;;;4918527;29;20056;-90
2022/04/17 05:02:56;;;;;;;5.18;2.60;;;9.20;1.00;;;;;;4903477;29;20044;-90
2022/04/17 05:05:23;;;;;;;5.22;2.97;;;9.20;1.00;;;;;;4918950;29;20069;-90
2022/04/17 05:07:50;;;;;;;4.78;2.90;;;9.20;1.00;;;;;;4903685;29;20040;-90
2022/04/17 05:10:18;;;;;;;6.75;2.97;;;9.10;1.00;;;;;;4920161;29;20048;-91
2022/04/17 05:12:45;;;;;;;4.50;2.65;;;9.10;1.00;;;;;;4903612;29;20491;-89
2022/04/17 05:15:12;;;;;;;5.28;3.40;;;9.10;1.00;;;;;;4926023;29;20056;-90
2022/04/17 05:17:39;;;;;;;4.47;3.17;;;9.10;1.00;;;;;;4922302;29;20059;-90
2022/04/17 05:20:07;;;;;;;6.43;2.90;;;9.10;1.00;;;;;;4928316;29;20044;-90
2022/04/17 05:22:34;;;;;;;6.35;3.15;;;9.10;1.00;;;;;;4906956;29;20048;-90
2022/04/17 05:25:01;;;;;;;3.25;2.75;;;9.10;1.00;;;;;;4902836;29;20040;-90
2022/04/17 05:27:28;;;;;;;4.20;2.97;;;9.10;1.00;;;;;;4902985;29;20100;-90
2022/04/17 05:29:55;;;;;;;4.57;3.20;;;9.10;1.00;;;;;;4902890;29;20041;-90
2022/04/17 05:32:23;;;;;;;6.88;3.78;;;9.10;1.00;;;;;;4918294;29;20062;-90
2022/04/17 05:34:50;;;;;;;4.82;3.20;;;9.10;1.00;;;;;;4918190;29;20461;-91
2022/04/17 05:37:18;;;;;;;5.25;2.67;;;9.10;1.00;;;;;;4919510;29;20052;-90
2022/04/17 05:39:45;;;;;;;6.82;2.65;;;9.10;1.00;;;;;;4902896;29;20056;-89
2022/04/17 05:42:13;;;;;;;5.03;2.97;;;9.10;1.00;;;;;;4903102;29;20040;-90
2022/04/17 05:44:46;;;;;;;5.63;3.20;;;9.10;1.00;;;;;;4918879;29;20044;-88
2022/04/17 05:47:13;;;;;;;6.68;2.72;;;9.10;1.00;;;;;;4918326;29;20490;-89
2022/04/17 05:49:40;;;;;;;6.55;3.10;;;9.10;1.00;;;;;;4902382;29;20059;-91
2022/04/17 05:52:07;;;;;;;4.60;3.05;;;9.10;1.00;;;;;;4902493;29;20510;-90
2022/04/17 05:54:35;;;;;;;5.50;2.88;;;9.00;1.00;;;;;;4902218;29;20048;-89
2022/04/17 05:57:02;;;;;;;7.05;3.40;;;9.00;1.00;;;;;;4918126;29;20048;-89
2022/04/17 05:59:29;;;;;;;7.32;4.50;;;9.00;1.00;;;;;;4920600;29;20052;-88
2022/04/17 06:01:55;;;;;;;6.57;4.07;;;8.90;1.00;;;;;;4937000;29;20138;-89
2022/04/17 06:04:22;;;;;;;7.70;4.38;;;8.90;1.00;;;;;;4921673;29;20079;-92
2022/04/17 06:06:49;;;;;;;4.70;3.22;;;8.90;1.00;;;;;;4937345;29;20072;-90
2022/04/17 06:09:16;;;;;;;8.38;2.88;;;9.00;1.00;;;;;;4921487;29;20048;-89
2022/04/17 06:11:43;;;;;;;4.85;3.13;;;9.00;1.00;;;;;;4936903;29;20079;-89
2022/04/17 06:14:10;;;;;;;7.00;4.07;;;9.10;1.00;;;;;;4938105;29;20082;-90
2022/04/17 06:16:39;;;;;;;5.72;4.18;;;9.10;1.00;;;;;;4925184;29;20486;-90
2022/04/17 06:19:09;;;;;;;4.60;2.58;;;9.20;1.00;;;;;;4902297;29;20047;-92
2022/04/17 06:21:39;;;;;;;5.90;3.37;;;9.20;1.00;;;;;;4917723;29;20150;-92
2022/04/17 06:24:06;;;;;;;5.60;3.83;;;9.30;1.00;;;;;;4918364;29;20294;-91
2022/04/17 06:31:00;;;;;;;;;;;;;;;;;;;;;
2022/04/17 06:33:37;;;;;;;4.22;2.45;;;9.50;1.00;;;;;;4911793;29;20052;-89
2022/04/17 06:36:04;;;;;;;9.82;5.35;;;9.60;1.00;;;;;;4895936;29;20060;-90
2022/04/17 06:38:31;;;;;;;5.85;3.22;;;9.60;1.00;;;;;;4889934;29;20083;-90
2022/04/17 06:40:58;;;;;;;6.63;4.57;;;9.70;1.00;;;;;;4909476;23;20041;-91
2022/04/17 06:43:36;;;;;;;5.93;3.60;;;9.70;1.00;;;;;;4881806;29;20045;-91
2022/04/17 06:46:10;;;;;;;6.13;3.28;;;9.80;1.00;;;;;;4882728;29;20064;-90
2022/04/17 06:48:40;;;;;;;5.75;3.40;;;9.90;1.00;;;;;;4871336;29;20041;-89
2022/04/17 06:51:07;;;;;;;6.38;3.72;;;9.80;1.00;;;;;;4898200;29;20042;-89
2022/04/17 06:53:34;;;;;;;8.32;4.70;;;9.90;1.00;;;;;;4852670;29;20404;-90
2022/04/17 06:56:02;;;;;;;11.30;5.20;;;9.90;1.00;;;;;;4860881;29;20136;-90
2022/04/17 06:58:31;;;;;;;9.13;5.40;;;9.90;1.00;;;;;;4884792;29;20551;-89
2022/04/17 07:00:58;;;;;;;7.80;3.70;;;9.90;1.00;;;;;;4879215;29;20052;-89
2022/04/17 07:03:25;;;;;;;8.00;5.03;;;9.80;1.00;;;;;;4876590;29;20044;-89
2022/04/17 07:05:52;;;;;;;6.82;4.30;;;9.80;1.00;;;;;;4890314;29;20057;-90
2022/04/17 07:08:20;;;;;;;6.43;4.18;;;9.80;1.00;;;;;;4861686;29;20129;-90
2022/04/17 07:10:47;;;;;;;6.25;4.15;;;9.80;1.00;;;;;;4888875;29;20057;-89
2022/04/17 07:13:18;;;;;;;7.25;5.15;;;9.80;1.00;;;;;;4854621;29;20448;-89
2022/04/17 07:15:49;;;;;;;6.78;3.60;;;9.80;1.00;;;;;;4899240;29;20084;-89
2022/04/17 07:18:16;;;;;;;8.88;4.05;;;9.80;1.00;;;;;;4878438;29;20049;-89
2022/04/17 07:20:44;;;;;;;8.32;4.45;;;9.80;1.00;;;;;;4884465;29;20056;-90
2022/04/17 07:23:11;;;;;;;6.88;4.68;;;9.80;1.00;;;;;;4893083;29;20487;-89
2022/04/17 07:25:41;;;;;;;11.63;5.22;;;9.80;1.00;;;;;;4871073;29;20041;-90
2022/04/17 07:28:12;;;;;;;7.88;4.55;;;9.80;1.00;;;;;;4896332;29;20076;-89
2022/04/17 07:30:45;;;;;;;6.53;4.88;;;9.90;1.00;;;;;;4878887;29;20068;-90
2022/04/17 07:33:13;;;;;;;8.05;4.78;;;9.90;1.00;;;;;;4880160;29;20415;-90
2022/04/17 07:35:40;;;;;;;7.82;5.53;;;9.90;1.00;;;;;;4864650;29;20081;-89
2022/04/17 07:38:10;;;;;;;12.38;5.32;;;10.00;1.00;;;;;;4884074;29;20056;-89
2022/04/17 07:40:37;;;;;;;8.00;4.40;;;10.00;1.00;;;;;;4882407;29;20105;-90
2022/04/17 07:43:09;;;;;;;8.88;4.55;;;10.00;1.00;;;;;;4877330;29;20050;-91
2022/04/17 07:45:39;;;;;;;9.20;4.30;;;10.00;1.00;;;;;;4870012;29;20056;-91
2022/04/17 07:48:08;;;;;;;6.28;4.63;;;10.10;1.00;;;;;;4846497;29;20068;-88
2022/04/17 07:50:47;;;;;;;4.75;3.70;;;10.10;1.00;;;;;;4844160;29;20090;-91
2022/04/17 07:54:19;;;;;;;11.48;3.55;;;10.20;1.00;;;;;;4881811;29;20055;-91
2022/04/17 07:57:03;;;;;;;7.80;4.38;;;10.20;1.00;;;;;;4897380;29;20049;-92
2022/04/17 07:59:36;;;;;;;7.28;3.92;;;10.30;1.00;;;;;;4881902;29;20052;-91
2022/04/17 08:02:28;;;;;;;11.55;4.45;;;10.20;1.00;;;;;;4898114;23;20052;-91
2022/04/17 08:04:59;;;;;;;7.13;4.88;;;10.40;1.00;;;;;;4880445;29;20045;-91
2022/04/17 08:07:32;;;;;;;7.82;4.40;;;10.40;1.00;;;;;;4883362;29;20059;-91
2022/04/17 08:10:02;;;;;;;7.20;4.07;;;10.40;1.00;;;;;;4884392;29;20587;-92
2022/04/17 08:12:32;;;;;;;7.40;4.82;;;10.50;1.00;;;;;;4879781;29;20057;-91
2022/04/17 08:15:03;;;;;;;7.43;4.38;;;10.70;1.00;;;;;;4863909;29;20064;-91
2022/04/17 08:17:35;;;;;;;6.32;4.18;;;10.80;1.00;;;;;;4879394;29;20093;-91
2022/04/17 08:20:04;;;;;;;7.80;4.78;;;10.80;1.00;;;;;;4863596;29;20049;-93
2022/04/17 08:22:31;;;;;;;7.47;5.15;;;10.80;1.00;;;;;;4881356;29;20041;-92
2022/04/17 08:29:19;;;;;;;5.30;3.50;;;10.90;1.00;;;;;;4883213;29;20052;-92
2022/04/17 08:40:54;;;;;;;7.85;4.60;;;11.30;1.00;;;;;;4862247;29;20184;-91
2022/04/17 08:43:34;;;;;;;7.57;4.30;;;11.60;1.00;;;;;;4847199;29;20053;-91
2022/04/17 08:46:05;;;;;;;8.00;3.63;;;11.50;1.00;;;;;;4848608;29;20049;-92
2022/04/17 08:48:36;;;;;;;5.93;3.92;;;11.50;1.00;;;;;;4863633;29;20049;-92
2022/04/17 08:51:10;;;;;;;8.73;5.53;;;11.60;1.00;;;;;;4953216;23;20100;-94
2022/04/17 08:53:40;;;;;;;8.27;4.72;;;11.80;1.00;;;;;;4912477;29;20048;-90
2022/04/17 09:04:14;;;;;;;7.03;4.50;;;12.00;1.00;;;;;;4883153;29;20050;-93
2022/04/17 09:07:03;;;;;;;8.95;3.97;;;12.20;1.00;;;;;;4869389;29;20053;-91
2022/04/17 09:09:40;;;;;;;6.75;3.80;;;12.30;1.00;;;;;;4867221;29;20148;-88
2022/04/17 09:12:07;;;;;;;6.75;4.25;;;12.30;1.00;;;;;;4877291;29;20087;-90
2022/04/17 09:14:40;;;;;;;6.70;4.18;;;12.40;1.00;;;;;;4849121;29;20045;-90
2022/04/17 09:17:10;;;;;;;5.97;3.65;;;12.50;1.00;;;;;;4879871;29;20049;-91
2022/04/17 09:19:41;;;;;;;6.40;4.90;;;12.40;1.00;;;;;;4882775;29;20064;-92
2022/04/17 09:25:28;;;;;;;23.73;17.23;;;12.70;1.00;;;;;;4889472;29;20041;-87
2022/04/17 09:28:02;;;;;;;8.10;5.63;;;12.90;1.00;;;;;;4883004;29;20069;-89
2022/04/17 09:30:39;;;;;;;6.97;4.90;;;12.80;1.00;;;;;;4887325;29;20131;-88
2022/04/17 09:33:06;;;;;;;6.88;4.28;;;12.80;1.00;;;;;;4881841;29;20148;-90
2022/04/17 09:35:33;;;;;;;6.93;4.47;;;12.90;1.00;;;;;;4866470;29;20068;-89
2022/04/17 09:38:04;;;;;;;6.93;4.30;;;13.00;1.00;;;;;;4881424;29;20049;-88
2022/04/17 09:40:31;;;;;;;10.55;4.75;;;13.10;1.00;;;;;;4881112;29;20080;-89
2022/04/17 09:43:16;;;;;;;10.63;4.90;;;13.10;1.00;;;;;;4881004;29;20484;-89
2022/04/17 09:46:00;;;;;;;7.72;4.97;;;13.20;1.00;;;;;;4880926;29;20436;-89
2022/04/17 09:48:35;;;;;;;5.53;4.25;;;13.30;1.00;;;;;;4881336;29;20045;-88
2022/04/17 09:51:25;;;;;;;9.35;4.25;;;13.40;1.00;;;;;;4880788;29;20037;-89
2022/04/17 09:54:06;;;;;;;10.23;4.53;;;13.50;1.00;;;;;;4880073;29;20060;-89
2022/04/17 09:56:41;;;;;;;5.93;4.28;;;13.70;1.00;;;;;;4879873;29;20174;-88
2022/04/17 09:59:21;;;;;;;5.80;4.15;;;13.70;1.00;;;;;;4879937;29;20083;-89
2022/04/17 10:01:50;;;;;;;6.72;4.07;;;13.70;1.00;;;;;;4879599;29;20080;-89
2022/04/17 10:04:20;;;;;;;8.23;4.38;;;13.70;1.00;;;;;;4879561;29;20044;-89
2022/04/17 10:06:49;;;;;;;6.10;3.92;;;13.60;1.00;;;;;;4880305;29;20065;-89
2022/04/17 10:09:16;;;;;;;5.82;3.08;;;13.90;1.00;;;;;;4863990;29;20061;-89
2022/04/17 10:11:44;;;;;;;5.50;3.60;;;14.00;1.00;;;;;;4880911;29;20049;-88
2022/04/17 10:14:11;;;;;;;5.07;3.97;;;14.10;1.00;;;;;;4879707;29;20053;-89
2022/04/17 10:16:43;;;;;;;5.65;3.55;;;14.10;1.00;;;;;;4880829;29;20109;-89
2022/04/17 10:19:15;;;;;;;4.82;3.47;;;14.00;1.00;;;;;;4864523;29;20056;-90
2022/04/17 10:21:42;;;;;;;6.20;3.72;;;14.10;1.00;;;;;;4880471;29;20514;-90
2022/04/17 10:24:14;;;;;;;5.30;4.07;;;14.30;1.00;;;;;;4864787;29;20053;-89
2022/04/17 10:26:50;;;;;;;6.38;4.05;;;14.30;1.00;;;;;;4879407;29;20465;-88
2022/04/17 10:29:26;;;;;;;5.40;3.35;;;14.50;1.00;;;;;;4879222;29;20525;-89
2022/04/17 10:32:12;;;;;;;6.43;4.00;;;14.30;1.00;;;;;;4880660;29;20487;-88
2022/04/17 10:35:03;;;;;;;6.72;4.30;;;14.60;1.00;;;;;;4879027;29;20057;-88
2022/04/17 10:38:02;;;;;;;4.50;3.22;;;14.60;1.00;;;;;;4879089;29;20045;-88
2022/04/17 10:40:31;;;;;;;8.55;4.28;;;14.70;1.00;;;;;;4878885;29;20049;-88
2022/04/17 10:43:00;;;;;;;7.72;4.22;;;14.80;1.00;;;;;;4880379;29;20097;-89
2022/04/17 10:45:31;;;;;;;6.70;4.13;;;15.00;1.00;;;;;;4863790;29;20080;-88
2022/04/17 10:48:04;;;;;;;4.88;3.83;;;15.00;1.00;;;;;;4880012;29;20045;-89
2022/04/17 10:50:40;;;;;;;6.07;4.53;;;15.20;1.00;;;;;;4862653;29;20139;-88
2022/04/17 10:53:26;;;;;;;5.05;3.38;;;15.20;1.00;;;;;;4878703;29;20419;-89
2022/04/17 10:56:06;;;;;;;7.13;3.97;;;15.40;1.00;;;;;;4859951;29;20185;-88
2022/04/17 10:58:40;;;;;;;7.10;3.45;;;15.50;1.00;;;;;;4869733;29;20120;-89
2022/04/17 11:01:10;;;;;;;5.85;3.42;;;15.60;1.00;;;;;;4877817;29;20550;-89
2022/04/17 11:03:37;;;;;;;5.93;3.03;;;15.70;1.00;;;;;;4878454;29;20049;-89
2022/04/17 11:06:32;;;;;;;4.85;3.00;;;15.70;1.00;;;;;;4879650;29;20037;-88
2022/04/17 11:09:09;;;;;;;4.50;3.35;;;15.70;1.00;;;;;;4878324;29;20045;-89
2022/04/17 11:11:38;;;;;;;3.92;2.67;;;15.90;1.00;;;;;;4878277;29;20132;-88
2022/04/17 11:14:11;;;;;;;5.38;3.97;;;15.90;1.00;;;;;;4878524;29;20053;-89
2022/04/17 11:17:07;;;;;;;4.32;2.72;;;16.00;1.00;;;;;;4878424;29;20037;-89
2022/04/17 11:19:36;;;;;;;3.10;2.55;;;16.00;1.00;;;;;;4878266;29;20057;-88
2022/04/17 11:22:05;;;;;;;5.43;2.70;;;16.10;1.00;;;;;;4879182;29;20052;-89
2022/04/17 11:24:57;;;;;;;5.32;2.80;;;16.10;1.00;;;;;;4878896;29;20045;-89
2022/04/17 11:27:38;;;;;;;3.80;2.58;;;16.10;1.00;;;;;;4879472;29;20174;-89
2022/04/17 11:30:07;;;;;;;3.13;2.20;;;16.20;1.00;;;;;;4881130;29;20492;-89
2022/04/17 11:32:35;;;;;;;3.40;2.17;;;16.20;1.00;;;;;;4881697;29;20053;-89
2022/04/17 11:35:04;;;;;;;4.32;1.98;;;16.10;1.00;;;;;;4880781;29;20563;-89
2022/04/17 11:37:32;;;;;;;4.22;1.65;;;16.30;1.00;;;;;;4878029;29;20056;-89
2022/04/17 11:40:11;;;;;;;4.22;2.28;;;16.40;1.00;;;;;;4878720;29;20121;-89
2022/04/17 11:42:46;;;;;;;4.80;3.10;;;16.50;1.00;;;;;;4878200;29;20053;-87
2022/04/17 11:45:16;;;;;;;6.65;3.90;;;16.80;1.00;;;;;;4877995;29;20056;-88
2022/04/17 11:47:45;;;;;;;7.97;4.15;;;16.70;1.00;;;;;;4878072;29;20561;-88
2022/04/17 11:50:23;;;;;;;4.68;3.13;;;16.70;1.00;;;;;;4862670;29;20049;-89
2022/04/17 11:52:51;;;;;;;4.40;3.42;;;16.80;1.00;;;;;;4863524;29;20049;-89
2022/04/17 11:55:30;;;;;;;3.95;2.85;;;16.90;1.00;;;;;;4879431;29;20037;-88
2022/04/17 11:57:58;;;;;;;5.30;3.58;;;16.90;1.00;;;;;;4878498;29;20137;-89
2022/04/17 12:00:27;;;;;;;5.30;3.75;;;17.00;1.00;;;;;;4862776;29;20057;-87
2022/04/17 12:02:56;;;;;;;4.55;3.55;;;16.90;1.00;;;;;;4879180;29;20045;-90
2022/04/17 12:05:24;;;;;;;6.32;4.65;;;17.00;1.00;;;;;;4863080;29;20091;-87
2022/04/17 12:08:06;;;;;;;6.93;4.55;;;17.10;1.00;;;;;;4878148;29;20073;-88
2022/04/17 12:10:34;;;;;;;6.10;3.97;;;16.90;1.00;;;;;;4878172;29;20064;-88
2022/04/17 12:13:16;;;;;;;7.18;4.60;;;16.80;1.00;;;;;;4878451;29;20120;-90
2022/04/17 12:15:44;;;;;;;6.53;3.72;;;16.80;1.00;;;;;;4878432;29;20495;-88
2022/04/17 12:18:17;;;;;;;7.00;4.40;;;17.00;1.00;;;;;;4890611;29;20057;-89
2022/04/17 12:20:53;;;;;;;5.13;3.53;;;17.10;1.00;;;;;;4893084;29;20045;-89
2022/04/17 12:23:25;;;;;;;6.28;3.45;;;17.10;1.00;;;;;;4877308;29;20076;-88
2022/04/17 12:25:53;;;;;;;6.68;3.75;;;17.20;1.00;;;;;;4893259;29;20243;-88
2022/04/17 12:28:21;;;;;;;4.68;3.65;;;17.30;1.00;;;;;;4862862;29;20097;-88
2022/04/17 12:30:48;;;;;;;5.50;3.90;;;17.40;1.00;;;;;;4892997;29;20045;-90
2022/04/17 12:33:26;;;;;;;5.90;3.75;;;17.40;1.00;;;;;;4878386;29;20280;-90
2022/04/17 12:36:05;;;;;;;8.43;4.30;;;17.50;1.00;;;;;;4879526;29;20052;-89
2022/04/17 12:38:40;;;;;;;6.70;4.57;;;17.30;1.00;;;;;;4878070;29;20057;-90
2022/04/17 12:41:26;;;;;;;9.05;4.38;;;17.50;1.00;;;;;;4878245;29;20156;-89
2022/04/17 12:43:54;;;;;;;9.55;4.35;;;17.70;1.00;;;;;;4879112;29;20045;-89
2022/04/17 12:46:32;;;;;;;9.10;4.97;;;17.80;1.00;;;;;;4879438;29;20124;-89
2022/04/17 12:49:18;;;;;;;7.13;5.18;;;17.50;1.00;;;;;;4879301;29;20045;-89
2022/04/17 12:51:56;;;;;;;5.22;3.58;;;17.30;1.00;;;;;;4864279;29;20048;-89
2022/04/17 12:54:32;;;;;;;6.18;3.35;;;17.50;1.00;;;;;;4881567;29;20055;-89
2022/04/17 12:57:10;;;;;;;6.85;4.30;;;17.70;1.00;;;;;;4864270;29;20053;-89
2022/04/17 12:59:48;;;;;;;5.03;3.55;;;17.40;1.00;;;;;;4879773;29;20045;-90
2022/04/17 13:02:18;;;;;;;4.43;2.88;;;17.80;1.00;;;;;;4881857;29;20049;-89
2022/04/17 13:04:47;;;;;;;3.97;2.20;;;18.00;1.00;;;;;;4881693;29;20495;-89
2022/04/17 13:07:16;;;;;;;4.80;2.78;;;18.10;1.00;;;;;;4880577;29;20101;-89
2022/04/17 13:09:55;;;;;;;4.82;2.80;;;18.30;1.00;;;;;;4880014;29;20049;-88
2022/04/17 13:12:34;;;;;;;3.55;2.70;;;18.40;1.00;;;;;;4880359;29;20037;-88
2022/04/17 13:15:06;;;;;;;4.32;3.17;;;18.50;1.00;;;;;;4881760;29;20041;-88
2022/04/17 13:17:50;;;;;;;4.35;3.05;;;18.50;1.00;;;;;;4881667;29;20045;-88
2022/04/17 13:20:20;;;;;;;4.00;3.13;;;18.60;1.00;;;;;;4881808;29;20044;-88
2022/04/17 13:22:47;;;;;;;6.10;3.25;;;18.60;1.00;;;;;;4896215;29;20072;-88
2022/04/17 13:25:17;;;;;;;5.13;3.30;;;18.70;1.00;;;;;;4882290;29;20041;-89
2022/04/17 13:27:46;;;;;;;5.50;3.30;;;18.70;1.00;;;;;;4880424;29;20055;-89
2022/04/17 13:30:16;;;;;;;5.18;4.03;;;18.80;1.00;;;;;;4880563;29;20049;-88
2022/04/17 13:32:43;;;;;;;5.65;3.03;;;18.90;1.00;;;;;;4881603;29;20436;-89
2022/04/17 13:35:11;;;;;;;4.10;3.03;;;19.00;1.00;;;;;;4881737;29;20041;-88
2022/04/17 13:40:25;;;;;;;7.47;4.30;;;18.90;1.00;;;;;;4879402;29;20053;-88
2022/04/17 13:42:52;;;;;;;4.10;2.65;;;18.90;1.00;;;;;;4864661;29;20056;-89
2022/04/17 13:45:19;;;;;;;5.72;3.95;;;19.20;1.00;;;;;;4880969;29;20472;-88
2022/04/17 13:47:46;;;;;;;7.45;4.22;;;19.10;1.00;;;;;;4864455;29;20448;-88
2022/04/17 13:50:13;;;;;;;7.20;5.07;;;19.20;1.00;;;;;;4864363;29;20049;-89
2022/04/17 13:52:41;;;;;;;9.00;5.35;;;18.70;1.00;;;;;;4880906;29;20048;-87
2022/04/17 13:55:09;;;;;;;7.15;4.78;;;18.60;1.00;;;;;;4879607;29;20132;-88
2022/04/17 13:57:37;;;;;;;7.38;5.60;;;18.90;1.00;;;;;;4879928;29;20128;-89
2022/04/17 14:00:06;;;;;;;7.95;5.13;;;18.70;1.00;;;;;;4880829;29;20044;-88
2022/04/17 14:02:40;;;;;;;5.35;4.47;;;18.90;1.00;;;;;;4880843;29;20080;-89